• Join FlightAware (Why Join?)
  • Login
  • US Flag 
Rudolph Flight #1: Arrived! 
07:01AM EST


 

Airport Tracker/Info


-or-


 

Live Flight TrackerFlight Track Log ✈ ASQ4252 ✈ 24-Jul-2013 ✈ KXNA - KORD

Flight Track Log - Related Links

Times and Time Zones

All times are in EDT time to prevent confusion due to time zone crossing. See the ASQ4252 flight status page for this flight to view local times or setup timezone preferences in your user account.

Time Position Orientation Groundspeed Altitude Reporting Facility
EDT Latitude Longitude Course Direction KTS MPH feet Rate Location/Type
11:05AM 36.3586 -94.3344 348° North 182 209 4,400  Level Kansas City Center
11:06AM 36.4328 -94.3503 350° North 201 231 6,900 2,400 Climbing Kansas City Center
11:07AM 36.6089 -94.3696 345° North  Level FlightAware Approximate
11:07AM 36.5136 -94.3656 351° North 252 290 9,400  Level Kansas City Center
11:08AM 36.6938 -94.3921 351° North  Level FlightAware Approximate
11:08AM 36.5883 -94.3814 350° North 272 313 11,400  Level Kansas City Center
11:09AM 36.7769 -94.4087 351° North  Level FlightAware Approximate
11:09AM 36.6589 -94.3297 30° Northeast 302 348 13,000  Level Kansas City Center
11:10AM 36.8446 -94.4090 60° Northeast  Level FlightAware Approximate
11:10AM 36.7222 -94.2403 49° Northeast 334 384 14,300  Level Kansas City Center
11:11AM 36.7878 -94.1475 49° Northeast 350 403 15,800 1,380 Climbing Kansas City Center
11:12AM 36.8700 -94.0325 48° Northeast 365 420 17,200 1,320 Climbing Kansas City Center
11:14AM 36.9378 -93.9319 50° Northeast 374 430 18,600 1,320 Climbing Kansas City Center
11:15AM 37.0053 -93.8342 49° Northeast 373 429 20,000 1,500 Climbing Kansas City Center
11:16AM 37.0753 -93.7342 49° Northeast 374 430 21,700 1,380 Climbing Kansas City Center
11:17AM 37.1428 -93.6381 49° Northeast 368 423 22,900 840 Climbing Kansas City Center
11:18AM 37.2125 -93.5372 49° Northeast 378 435 23,500 540 Climbing Kansas City Center
11:19AM 37.2864 -93.4314 49° Northeast 396 456 24,100 540 Climbing Kansas City Center
11:20AM 37.3803 -93.3047 47° Northeast 406 467 24,700 480 Climbing Kansas City Center
11:21AM 37.4753 -93.2211 35° Northeast 412 474 25,200 480 Climbing Kansas City Center
11:22AM 37.5719 -93.1336 36° Northeast 422 486 25,700 480 Climbing Kansas City Center
11:23AM 37.6692 -93.0458 36° Northeast 427 491 26,300 480 Climbing Kansas City Center
11:24AM 37.7647 -92.9536 37° Northeast 430 495 26,800 480 Climbing Kansas City Center
11:25AM 37.8622 -92.8633 36° Northeast 431 496 27,300 480 Climbing Kansas City Center
11:26AM 37.9594 -92.7733 36° Northeast 429 494 27,900 540 Climbing Kansas City Center
11:27AM 38.0636 -92.6764 36° Northeast 429 494 28,500 660 Climbing Kansas City Center
11:28AM 38.1586 -92.5858 37° Northeast 427 491 29,300 960 Climbing Kansas City Center
11:29AM 38.2686 -92.4847 36° Northeast 421 484 30,500 1,020 Climbing Kansas City Center
11:30AM 38.3608 -92.3950 37° Northeast 415 478 31,500 960 Climbing Kansas City Center
11:31AM 38.4533 -92.3078 36° Northeast 412 474 32,500 960 Climbing Kansas City Center
11:32AM 38.5442 -92.2194 37° Northeast 409 471 33,500 960 Climbing Kansas City Center
11:33AM 38.6353 -92.1319 37° Northeast 408 470 34,600 720 Climbing Kansas City Center
11:34AM 38.7264 -92.0461 36° Northeast 407 468 35,000 180 Climbing Kansas City Center
11:35AM 38.8228 -91.9542 37° Northeast 416 479 35,000  Level Kansas City Center
11:36AM 38.9428 -91.8375 37° Northeast 435 501 35,000  Level Kansas City Center
11:37AM 39.0453 -91.7378 37° Northeast 449 517 35,000  Level Kansas City Center
11:38AM 39.1456 -91.6381 38° Northeast 453 521 35,000  Level Kansas City Center
11:39AM 39.2497 -91.5353 37° Northeast 461 531 35,000  Level Kansas City Center
11:40AM 39.3531 -91.4353 37° Northeast 464 534 35,000  Level Kansas City Center
11:41AM 39.4550 -91.3339 38° Northeast 462 532 35,000 -780 Level Kansas City Center
11:42AM 39.5564 -91.2325 38° Northeast 461 531 33,500 -1,020 Descending Kansas City Center
11:43AM 39.6583 -91.1317 37° Northeast 461 531 33,000 -240 Descending Kansas City Center
11:45AM 39.7689 -91.0211 38° Northeast 459 528 33,000  Level Kansas City Center
11:46AM 39.8844 -90.9053 38° Northeast 456 525 33,000  Level Kansas City Center
11:47AM 39.9844 -90.8047 38° Northeast 454 522 33,000  Level Kansas City Center
11:48AM 40.0844 -90.7028 38° Northeast 455 524 33,000  Level Kansas City Center
11:48AM 40.1261 -90.6611 37° Northeast 456 525 33,000  Level Chicago Center
11:49AM 40.1853 -90.5992 39° Northeast 458 527 33,000  Level Kansas City Center
11:50AM 40.2861 -90.4978 37° Northeast 458 527 33,000  Level Kansas City Center
11:51AM 40.3872 -90.3936 38° Northeast 459 528 33,000  Level Kansas City Center
11:51AM 40.4483 -90.3319 38° Northeast 459 528 33,000 -120 Level Chicago Center
11:52AM 40.5597 -90.2150 39° Northeast 459 528 32,900 -780 Descending Chicago Center
11:53AM 40.6611 -90.1119 38° Northeast 461 531 31,400 -1,500 Descending Chicago Center
11:54AM 40.7633 -90.0083 38° Northeast 466 536 29,900 -1,500 Descending Chicago Center
11:55AM 40.8669 -89.8992 39° Northeast 476 548 28,400 -1,440 Descending Chicago Center
11:56AM 40.9664 -89.7892 40° Northeast 471 542 27,000 -1,560 Descending Chicago Center
11:57AM 41.0592 -89.6194 54° Northeast 479 551 25,200 -1,800 Descending Chicago Center
11:59AM 41.1314 -89.4744 56° Northeast 476 548 23,300 -2,400 Descending Chicago Center
12:00PM 41.2011 -89.3369 56° Northeast 459 528 20,300 -2,760 Descending Chicago Center
12:01PM 41.2661 -89.2067 56° Northeast 423 487 17,700 -2,280 Descending Chicago Center
12:02PM 41.3261 -89.0833 57° Northeast 407 468 15,600 -2,160 Descending Chicago Center
12:03PM 41.3975 -88.9419 56° Northeast 386 444 13,200 -2,160 Descending Chicago Center
12:04PM 41.4536 -88.8258 57° Northeast 375 432 11,200 -1,080 Descending Chicago Center
12:05PM 41.5100 -88.7097 57° Northeast 373 429 11,000 -60 Descending Chicago Center
12:06PM 41.5597 -88.5858 62° Northeast 377 434 11,100 -360 Climbing Chicago Center
12:07PM 41.5756 -88.4725 79° East 321 369 10,300 -960 Descending Chicago Center
12:08PM 41.5886 -88.3619 81° East 304 350 9,200 -1,020 Descending Chicago Center
12:09PM 41.6361 -88.2636 57° Northeast 268 308 8,200 -840 Descending Chicago Center
12:10PM 41.6947 -88.2053 37° Northeast 259 298 7,500 -1,140 Descending Chicago Center
12:11PM 41.7503 -88.1383 42° Northeast 266 306 5,900 -1,500 Descending Chicago Center
12:12PM 41.8044 -88.0761 41° Northeast 263 303 4,500 -1,380 Descending Chicago Center